Terminal Aerodrome Forecast
Issued by NWS

Home | Current Version | Previous Version | Text Only | Print | Product List | Glossary On
Versions: 1 2 3 4 5 6 7 8 9 10 11 12 13 14
000
FTUS42 KMLB 241728
TAFTIX
TAF
KTIX 241728Z 2418/2518 10013KT P6SM VCSH SCT025 BKN035
      TEMPO 2418/2420 SHRA BKN025
     FM250100 09010KT P6SM VCSH SCT020
     FM251300 09014KT P6SM VCSH SCT020 BKN035=

USA.gov is the U.S. government's official web portal to all federal, state and local government web resources and services.